sensor_id;sensor_type;location;lat;lon;timestamp;P1;P2;P0
64627;PMS5003;68467;50.960;0.314;2024-01-07T00:00:07;26;22;
64627;PMS5003;68467;50.960;0.314;2024-01-07T00:02:36;23;19;
64627;PMS5003;68467;50.960;0.314;2024-01-07T00:05:04;18;16;
64627;PMS5003;68467;50.960;0.314;2024-01-07T00:07:31;23;21;
64627;PMS5003;68467;50.960;0.314;2024-01-07T00:09:59;19;18;
64627;PMS5003;68467;50.960;0.314;2024-01-07T00:12:26;12;10;
64627;PMS5003;68467;50.960;0.314;2024-01-07T00:14:55;17;16;
64627;PMS5003;68467;50.960;0.314;2024-01-07T00:17:23;26;24;
64627;PMS5003;68467;50.960;0.314;2024-01-07T00:19:50;21;18;
64627;PMS5003;68467;50.960;0.314;2024-01-07T00:22:18;15;15;
64627;PMS5003;68467;50.960;0.314;2024-01-07T00:24:45;19;18;
64627;PMS5003;68467;50.960;0.314;2024-01-07T00:27:12;30;26;
64627;PMS5003;68467;50.960;0.314;2024-01-07T00:29:39;11;11;
64627;PMS5003;68467;50.960;0.314;2024-01-07T00:32:07;11;9;
64627;PMS5003;68467;50.960;0.314;2024-01-07T00:34:34;26;25;
64627;PMS5003;68467;50.960;0.314;2024-01-07T00:37:03;40;37;
64627;PMS5003;68467;50.960;0.314;2024-01-07T00:39:30;16;16;
64627;PMS5003;68467;50.960;0.314;2024-01-07T00:41:58;47;44;
64627;PMS5003;68467;50.960;0.314;2024-01-07T00:44:25;26;24;
64627;PMS5003;68467;50.960;0.314;2024-01-07T00:46:52;34;30;
64627;PMS5003;68467;50.960;0.314;2024-01-07T00:49:20;16;16;
64627;PMS5003;68467;50.960;0.314;2024-01-07T00:51:47;27;26;
64627;PMS5003;68467;50.960;0.314;2024-01-07T00:54:15;18;18;
64627;PMS5003;68467;50.960;0.314;2024-01-07T00:56:42;47;43;
64627;PMS5003;68467;50.960;0.314;2024-01-07T00:59:11;27;25;
64627;PMS5003;68467;50.960;0.314;2024-01-07T01:01:39;28;25;
64627;PMS5003;68467;50.960;0.314;2024-01-07T01:04:07;13;13;
64627;PMS5003;68467;50.960;0.314;2024-01-07T01:06:34;16;16;
64627;PMS5003;68467;50.960;0.314;2024-01-07T01:09:01;23;22;
64627;PMS5003;68467;50.960;0.314;2024-01-07T01:11:29;13;13;
64627;PMS5003;68467;50.960;0.314;2024-01-07T01:13:56;9;8;
64627;PMS5003;68467;50.960;0.314;2024-01-07T01:16:23;6;6;
64627;PMS5003;68467;50.960;0.314;2024-01-07T01:18:51;7;7;
64627;PMS5003;68467;50.960;0.314;2024-01-07T01:21:18;13;13;
64627;PMS5003;68467;50.960;0.314;2024-01-07T01:23:46;5;5;
64627;PMS5003;68467;50.960;0.314;2024-01-07T01:26:14;8;6;
64627;PMS5003;68467;50.960;0.314;2024-01-07T01:28:41;8;8;
64627;PMS5003;68467;50.960;0.314;2024-01-07T01:31:12;6;5;
64627;PMS5003;68467;50.960;0.314;2024-01-07T01:33:39;6;6;
64627;PMS5003;68467;50.960;0.314;2024-01-07T01:36:07;7;7;
64627;PMS5003;68467;50.960;0.314;2024-01-07T01:38:36;7;7;
64627;PMS5003;68467;50.960;0.314;2024-01-07T01:41:03;5;5;
64627;PMS5003;68467;50.960;0.314;2024-01-07T01:43:30;5;5;
64627;PMS5003;68467;50.960;0.314;2024-01-07T01:45:58;11;11;
64627;PMS5003;68467;50.960;0.314;2024-01-07T01:48:26;6;6;
64627;PMS5003;68467;50.960;0.314;2024-01-07T01:50:53;8;8;
64627;PMS5003;68467;50.960;0.314;2024-01-07T01:53:21;6;5;
64627;PMS5003;68467;50.960;0.314;2024-01-07T01:55:49;8;8;
64627;PMS5003;68467;50.960;0.314;2024-01-07T01:58:16;10;8;
64627;PMS5003;68467;50.960;0.314;2024-01-07T02:00:45;5;5;
64627;PMS5003;68467;50.960;0.314;2024-01-07T02:03:13;6;6;
64627;PMS5003;68467;50.960;0.314;2024-01-07T02:05:40;5;5;
64627;PMS5003;68467;50.960;0.314;2024-01-07T02:08:07;8;7;
64627;PMS5003;68467;50.960;0.314;2024-01-07T02:10:35;6;6;
64627;PMS5003;68467;50.960;0.314;2024-01-07T02:13:03;5;4;
64627;PMS5003;68467;50.960;0.314;2024-01-07T02:15:31;4;4;
64627;PMS5003;68467;50.960;0.314;2024-01-07T02:17:58;6;5;
64627;PMS5003;68467;50.960;0.314;2024-01-07T02:20:25;6;6;
64627;PMS5003;68467;50.960;0.314;2024-01-07T02:22:52;4;4;
64627;PMS5003;68467;50.960;0.314;2024-01-07T02:25:20;4;4;
64627;PMS5003;68467;50.960;0.314;2024-01-07T02:27:47;4;4;
64627;PMS5003;68467;50.960;0.314;2024-01-07T02:30:14;6;5;
64627;PMS5003;68467;50.960;0.314;2024-01-07T02:32:41;5;5;
64627;PMS5003;68467;50.960;0.314;2024-01-07T02:35:09;4;4;
64627;PMS5003;68467;50.960;0.314;2024-01-07T02:37:36;3;3;
64627;PMS5003;68467;50.960;0.314;2024-01-07T02:40:03;4;3;
64627;PMS5003;68467;50.960;0.314;2024-01-07T02:42:31;4;4;
64627;PMS5003;68467;50.960;0.314;2024-01-07T02:44:58;3;3;
64627;PMS5003;68467;50.960;0.314;2024-01-07T02:47:26;4;3;
64627;PMS5003;68467;50.960;0.314;2024-01-07T02:49:53;3;3;
64627;PMS5003;68467;50.960;0.314;2024-01-07T02:52:22;4;3;
64627;PMS5003;68467;50.960;0.314;2024-01-07T02:54:49;3;3;
64627;PMS5003;68467;50.960;0.314;2024-01-07T02:57:17;5;4;
64627;PMS5003;68467;50.960;0.314;2024-01-07T02:59:44;5;5;
64627;PMS5003;68467;50.960;0.314;2024-01-07T03:02:11;3;2;
64627;PMS5003;68467;50.960;0.314;2024-01-07T03:04:38;4;4;
64627;PMS5003;68467;50.960;0.314;2024-01-07T03:07:07;5;5;
64627;PMS5003;68467;50.960;0.314;2024-01-07T03:09:34;3;3;
64627;PMS5003;68467;50.960;0.314;2024-01-07T03:12:01;3;3;
64627;PMS5003;68467;50.960;0.314;2024-01-07T03:14:29;2;2;
64627;PMS5003;68467;50.960;0.314;2024-01-07T03:16:57;3;3;
64627;PMS5003;68467;50.960;0.314;2024-01-07T03:19:24;2;2;
64627;PMS5003;68467;50.960;0.314;2024-01-07T03:21:51;4;4;
64627;PMS5003;68467;50.960;0.314;2024-01-07T03:24:18;2;2;
64627;PMS5003;68467;50.960;0.314;2024-01-07T03:26:46;3;3;
64627;PMS5003;68467;50.960;0.314;2024-01-07T03:29:13;2;2;
64627;PMS5003;68467;50.960;0.314;2024-01-07T03:31:40;3;2;
64627;PMS5003;68467;50.960;0.314;2024-01-07T03:34:07;3;3;
64627;PMS5003;68467;50.960;0.314;2024-01-07T03:36:35;2;2;
64627;PMS5003;68467;50.960;0.314;2024-01-07T03:39:02;2;2;
64627;PMS5003;68467;50.960;0.314;2024-01-07T03:41:29;4;3;
64627;PMS5003;68467;50.960;0.314;2024-01-07T03:43:56;3;3;
64627;PMS5003;68467;50.960;0.314;2024-01-07T03:46:24;3;3;
64627;PMS5003;68467;50.960;0.314;2024-01-07T03:48:51;2;2;
64627;PMS5003;68467;50.960;0.314;2024-01-07T03:51:18;4;3;
64627;PMS5003;68467;50.960;0.314;2024-01-07T03:53:45;3;3;
64627;PMS5003;68467;50.960;0.314;2024-01-07T03:56:13;3;1;
64627;PMS5003;68467;50.960;0.314;2024-01-07T03:58:40;3;2;
64627;PMS5003;68467;50.960;0.314;2024-01-07T04:01:07;2;2;
64627;PMS5003;68467;50.960;0.314;2024-01-07T04:03:35;2;2;
64627;PMS5003;68467;50.960;0.314;2024-01-07T04:06:06;3;3;
64627;PMS5003;68467;50.960;0.314;2024-01-07T04:08:33;2;2;
64627;PMS5003;68467;50.960;0.314;2024-01-07T04:11:01;2;2;
64627;PMS5003;68467;50.960;0.314;2024-01-07T04:13:29;4;3;
64627;PMS5003;68467;50.960;0.314;2024-01-07T04:15:56;1;1;
64627;PMS5003;68467;50.960;0.314;2024-01-07T04:18:23;3;3;
64627;PMS5003;68467;50.960;0.314;2024-01-07T04:20:51;3;2;
64627;PMS5003;68467;50.960;0.314;2024-01-07T04:23:18;3;3;
64627;PMS5003;68467;50.960;0.314;2024-01-07T04:25:45;2;2;
64627;PMS5003;68467;50.960;0.314;2024-01-07T04:28:12;1;1;
64627;PMS5003;68467;50.960;0.314;2024-01-07T04:30:40;2;2;
64627;PMS5003;68467;50.960;0.314;2024-01-07T04:33:07;2;2;
64627;PMS5003;68467;50.960;0.314;2024-01-07T04:35:35;4;4;
64627;PMS5003;68467;50.960;0.314;2024-01-07T04:38:02;3;2;
64627;PMS5003;68467;50.960;0.314;2024-01-07T04:40:30;2;2;
64627;PMS5003;68467;50.960;0.314;2024-01-07T04:42:57;3;2;
64627;PMS5003;68467;50.960;0.314;2024-01-07T04:45:24;5;5;
64627;PMS5003;68467;50.960;0.314;2024-01-07T04:47:51;3;3;
64627;PMS5003;68467;50.960;0.314;2024-01-07T04:50:19;3;3;
64627;PMS5003;68467;50.960;0.314;2024-01-07T04:52:46;2;2;
64627;PMS5003;68467;50.960;0.314;2024-01-07T04:55:13;3;3;
64627;PMS5003;68467;50.960;0.314;2024-01-07T04:57:41;3;3;
64627;PMS5003;68467;50.960;0.314;2024-01-07T05:00:08;4;3;
64627;PMS5003;68467;50.960;0.314;2024-01-07T05:02:36;1;1;
64627;PMS5003;68467;50.960;0.314;2024-01-07T05:05:03;4;3;
64627;PMS5003;68467;50.960;0.314;2024-01-07T05:07:30;4;3;
64627;PMS5003;68467;50.960;0.314;2024-01-07T05:09:58;2;2;
64627;PMS5003;68467;50.960;0.314;2024-01-07T05:12:25;3;3;
64627;PMS5003;68467;50.960;0.314;2024-01-07T05:14:52;2;2;
64627;PMS5003;68467;50.960;0.314;2024-01-07T05:17:20;3;3;
64627;PMS5003;68467;50.960;0.314;2024-01-07T05:19:47;2;2;
64627;PMS5003;68467;50.960;0.314;2024-01-07T05:22:14;3;2;
64627;PMS5003;68467;50.960;0.314;2024-01-07T05:24:41;3;1;
64627;PMS5003;68467;50.960;0.314;2024-01-07T05:27:09;1;1;
64627;PMS5003;68467;50.960;0.314;2024-01-07T05:29:36;3;3;
64627;PMS5003;68467;50.960;0.314;2024-01-07T05:32:03;3;2;
64627;PMS5003;68467;50.960;0.314;2024-01-07T05:34:31;2;2;
64627;PMS5003;68467;50.960;0.314;2024-01-07T05:36:58;2;2;
64627;PMS5003;68467;50.960;0.314;2024-01-07T05:39:26;2;2;
64627;PMS5003;68467;50.960;0.314;2024-01-07T05:41:53;4;3;
64627;PMS5003;68467;50.960;0.314;2024-01-07T05:44:20;3;2;
64627;PMS5003;68467;50.960;0.314;2024-01-07T05:46:47;2;2;
64627;PMS5003;68467;50.960;0.314;2024-01-07T05:49:15;2;2;
64627;PMS5003;68467;50.960;0.314;2024-01-07T05:51:42;3;2;
64627;PMS5003;68467;50.960;0.314;2024-01-07T05:54:09;2;2;
64627;PMS5003;68467;50.960;0.314;2024-01-07T05:56:38;3;3;
64627;PMS5003;68467;50.960;0.314;2024-01-07T05:59:06;2;2;
64627;PMS5003;68467;50.960;0.314;2024-01-07T06:01:33;2;2;
64627;PMS5003;68467;50.960;0.314;2024-01-07T06:04:00;4;3;
64627;PMS5003;68467;50.960;0.314;2024-01-07T06:06:27;2;2;
64627;PMS5003;68467;50.960;0.314;2024-01-07T06:08:55;2;2;
64627;PMS5003;68467;50.960;0.314;2024-01-07T06:11:22;2;2;
64627;PMS5003;68467;50.960;0.314;2024-01-07T06:13:49;3;3;
64627;PMS5003;68467;50.960;0.314;2024-01-07T06:16:16;1;1;
64627;PMS5003;68467;50.960;0.314;2024-01-07T06:18:44;3;3;
64627;PMS5003;68467;50.960;0.314;2024-01-07T06:21:11;2;2;
64627;PMS5003;68467;50.960;0.314;2024-01-07T06:23:38;2;2;
64627;PMS5003;68467;50.960;0.314;2024-01-07T06:26:06;3;2;
64627;PMS5003;68467;50.960;0.314;2024-01-07T06:28:33;3;2;
64627;PMS5003;68467;50.960;0.314;2024-01-07T06:31:02;2;1;
64627;PMS5003;68467;50.960;0.314;2024-01-07T06:33:29;2;2;
64627;PMS5003;68467;50.960;0.314;2024-01-07T06:35:56;1;1;
64627;PMS5003;68467;50.960;0.314;2024-01-07T06:38:24;3;2;
64627;PMS5003;68467;50.960;0.314;2024-01-07T06:40:51;3;3;
64627;PMS5003;68467;50.960;0.314;2024-01-07T06:43:18;2;2;
64627;PMS5003;68467;50.960;0.314;2024-01-07T06:45:45;2;2;
64627;PMS5003;68467;50.960;0.314;2024-01-07T06:48:13;3;3;
64627;PMS5003;68467;50.960;0.314;2024-01-07T06:50:40;3;2;
64627;PMS5003;68467;50.960;0.314;2024-01-07T06:53:07;1;1;
64627;PMS5003;68467;50.960;0.314;2024-01-07T06:55:35;2;1;
64627;PMS5003;68467;50.960;0.314;2024-01-07T06:58:02;5;4;
64627;PMS5003;68467;50.960;0.314;2024-01-07T07:00:30;7;7;
64627;PMS5003;68467;50.960;0.314;2024-01-07T07:02:57;7;7;
64627;PMS5003;68467;50.960;0.314;2024-01-07T07:05:24;4;3;
64627;PMS5003;68467;50.960;0.314;2024-01-07T07:07:51;3;3;
64627;PMS5003;68467;50.960;0.314;2024-01-07T07:10:19;8;6;
64627;PMS5003;68467;50.960;0.314;2024-01-07T07:12:46;23;22;
64627;PMS5003;68467;50.960;0.314;2024-01-07T07:15:13;12;12;
64627;PMS5003;68467;50.960;0.314;2024-01-07T07:17:41;16;16;
64627;PMS5003;68467;50.960;0.314;2024-01-07T07:20:08;3;3;
64627;PMS5003;68467;50.960;0.314;2024-01-07T07:22:36;3;3;
64627;PMS5003;68467;50.960;0.314;2024-01-07T07:25:04;5;5;
64627;PMS5003;68467;50.960;0.314;2024-01-07T07:27:31;4;3;
64627;PMS5003;68467;50.960;0.314;2024-01-07T07:29:59;4;4;
64627;PMS5003;68467;50.960;0.314;2024-01-07T07:32:26;2;2;
64627;PMS5003;68467;50.960;0.314;2024-01-07T07:34:53;7;5;
64627;PMS5003;68467;50.960;0.314;2024-01-07T07:37:20;2;1;
64627;PMS5003;68467;50.960;0.314;2024-01-07T07:39:48;5;5;
64627;PMS5003;68467;50.960;0.314;2024-01-07T07:42:15;7;5;
64627;PMS5003;68467;50.960;0.314;2024-01-07T07:44:43;4;4;
64627;PMS5003;68467;50.960;0.314;2024-01-07T07:47:11;3;3;
64627;PMS5003;68467;50.960;0.314;2024-01-07T07:49:38;4;4;
64627;PMS5003;68467;50.960;0.314;2024-01-07T07:52:06;4;4;
64627;PMS5003;68467;50.960;0.314;2024-01-07T07:54:34;2;2;
64627;PMS5003;68467;50.960;0.314;2024-01-07T07:57:03;2;2;
64627;PMS5003;68467;50.960;0.314;2024-01-07T07:59:30;5;4;
64627;PMS5003;68467;50.960;0.314;2024-01-07T08:01:58;3;3;
64627;PMS5003;68467;50.960;0.314;2024-01-07T08:04:25;2;2;
64627;PMS5003;68467;50.960;0.314;2024-01-07T08:06:52;6;5;
64627;PMS5003;68467;50.960;0.314;2024-01-07T08:09:19;5;4;
64627;PMS5003;68467;50.960;0.314;2024-01-07T08:11:47;2;2;
64627;PMS5003;68467;50.960;0.314;2024-01-07T08:14:14;3;3;
64627;PMS5003;68467;50.960;0.314;2024-01-07T08:16:41;6;6;
64627;PMS5003;68467;50.960;0.314;2024-01-07T08:19:08;3;3;
64627;PMS5003;68467;50.960;0.314;2024-01-07T08:21:36;2;2;
64627;PMS5003;68467;50.960;0.314;2024-01-07T08:24:03;2;2;
64627;PMS5003;68467;50.960;0.314;2024-01-07T08:26:30;2;2;
64627;PMS5003;68467;50.960;0.314;2024-01-07T08:28:57;3;3;
64627;PMS5003;68467;50.960;0.314;2024-01-07T08:31:25;2;2;
64627;PMS5003;68467;50.960;0.314;2024-01-07T08:33:52;2;2;
64627;PMS5003;68467;50.960;0.314;2024-01-07T08:36:19;2;2;
64627;PMS5003;68467;50.960;0.314;2024-01-07T08:38:47;2;2;
64627;PMS5003;68467;50.960;0.314;2024-01-07T08:41:15;3;2;
64627;PMS5003;68467;50.960;0.314;2024-01-07T08:43:42;3;2;
64627;PMS5003;68467;50.960;0.314;2024-01-07T08:46:10;2;2;
64627;PMS5003;68467;50.960;0.314;2024-01-07T08:48:38;12;11;
64627;PMS5003;68467;50.960;0.314;2024-01-07T08:51:05;5;5;
64627;PMS5003;68467;50.960;0.314;2024-01-07T08:53:32;6;6;
64627;PMS5003;68467;50.960;0.314;2024-01-07T08:55:59;2;2;
64627;PMS5003;68467;50.960;0.314;2024-01-07T08:58:27;5;5;
64627;PMS5003;68467;50.960;0.314;2024-01-07T09:00:54;8;6;
64627;PMS5003;68467;50.960;0.314;2024-01-07T09:03:21;5;4;
64627;PMS5003;68467;50.960;0.314;2024-01-07T09:05:49;3;3;
64627;PMS5003;68467;50.960;0.314;2024-01-07T09:08:16;2;2;
64627;PMS5003;68467;50.960;0.314;2024-01-07T09:10:43;2;2;
64627;PMS5003;68467;50.960;0.314;2024-01-07T09:13:11;4;4;
64627;PMS5003;68467;50.960;0.314;2024-01-07T09:15:38;5;4;
64627;PMS5003;68467;50.960;0.314;2024-01-07T09:18:06;3;3;
64627;PMS5003;68467;50.960;0.314;2024-01-07T09:20:33;3;3;
64627;PMS5003;68467;50.960;0.314;2024-01-07T09:23:01;1;1;
64627;PMS5003;68467;50.960;0.314;2024-01-07T09:25:28;4;4;
64627;PMS5003;68467;50.960;0.314;2024-01-07T09:27:55;2;2;
64627;PMS5003;68467;50.960;0.314;2024-01-07T09:30:23;2;2;
64627;PMS5003;68467;50.960;0.314;2024-01-07T09:32:51;3;3;
64627;PMS5003;68467;50.960;0.314;2024-01-07T09:35:18;3;3;
64627;PMS5003;68467;50.960;0.314;2024-01-07T09:37:45;2;2;
64627;PMS5003;68467;50.960;0.314;2024-01-07T09:40:12;3;3;
64627;PMS5003;68467;50.960;0.314;2024-01-07T09:42:44;2;2;
64627;PMS5003;68467;50.960;0.314;2024-01-07T09:45:13;2;2;
64627;PMS5003;68467;50.960;0.314;2024-01-07T09:47:41;2;2;
64627;PMS5003;68467;50.960;0.314;2024-01-07T09:50:10;2;2;
64627;PMS5003;68467;50.960;0.314;2024-01-07T09:52:38;1;1;
64627;PMS5003;68467;50.960;0.314;2024-01-07T09:55:11;1;1;
64627;PMS5003;68467;50.960;0.314;2024-01-07T09:57:45;1;1;
64627;PMS5003;68467;50.960;0.314;2024-01-07T10:00:12;3;2;
64627;PMS5003;68467;50.960;0.314;2024-01-07T10:02:40;1;1;
64627;PMS5003;68467;50.960;0.314;2024-01-07T10:05:07;2;2;
64627;PMS5003;68467;50.960;0.314;2024-01-07T10:07:36;2;2;
64627;PMS5003;68467;50.960;0.314;2024-01-07T10:10:10;2;2;
64627;PMS5003;68467;50.960;0.314;2024-01-07T10:12:39;3;3;
64627;PMS5003;68467;50.960;0.314;2024-01-07T10:15:06;3;3;
64627;PMS5003;68467;50.960;0.314;2024-01-07T10:17:34;2;2;
64627;PMS5003;68467;50.960;0.314;2024-01-07T10:20:01;3;3;
64627;PMS5003;68467;50.960;0.314;2024-01-07T10:22:31;3;2;
64627;PMS5003;68467;50.960;0.314;2024-01-07T10:25:01;3;3;
64627;PMS5003;68467;50.960;0.314;2024-01-07T10:27:29;2;2;
64627;PMS5003;68467;50.960;0.314;2024-01-07T10:30:00;2;2;
64627;PMS5003;68467;50.960;0.314;2024-01-07T10:32:28;3;3;
64627;PMS5003;68467;50.960;0.314;2024-01-07T10:34:57;4;3;
64627;PMS5003;68467;50.960;0.314;2024-01-07T10:37:30;2;2;
64627;PMS5003;68467;50.960;0.314;2024-01-07T10:39:58;5;4;
64627;PMS5003;68467;50.960;0.314;2024-01-07T10:42:25;4;3;
64627;PMS5003;68467;50.960;0.314;2024-01-07T10:44:54;3;3;
64627;PMS5003;68467;50.960;0.314;2024-01-07T10:47:21;3;2;
64627;PMS5003;68467;50.960;0.314;2024-01-07T10:49:50;3;2;
64627;PMS5003;68467;50.960;0.314;2024-01-07T10:52:18;3;3;
64627;PMS5003;68467;50.960;0.314;2024-01-07T10:54:47;3;3;
64627;PMS5003;68467;50.960;0.314;2024-01-07T10:57:17;5;4;
64627;PMS5003;68467;50.960;0.314;2024-01-07T10:59:51;6;5;
64627;PMS5003;68467;50.960;0.314;2024-01-07T11:02:20;4;3;
64627;PMS5003;68467;50.960;0.314;2024-01-07T11:04:50;2;2;
64627;PMS5003;68467;50.960;0.314;2024-01-07T11:07:32;3;2;
64627;PMS5003;68467;50.960;0.314;2024-01-07T11:10:06;3;3;
64627;PMS5003;68467;50.960;0.314;2024-01-07T11:12:38;5;4;
64627;PMS5003;68467;50.960;0.314;2024-01-07T11:15:06;4;4;
64627;PMS5003;68467;50.960;0.314;2024-01-07T11:17:41;6;6;
64627;PMS5003;68467;50.960;0.314;2024-01-07T11:20:12;4;4;
64627;PMS5003;68467;50.960;0.314;2024-01-07T11:22:44;10;8;
64627;PMS5003;68467;50.960;0.314;2024-01-07T11:25:28;4;4;
64627;PMS5003;68467;50.960;0.314;2024-01-07T11:27:56;4;4;
64627;PMS5003;68467;50.960;0.314;2024-01-07T11:30:24;5;5;
64627;PMS5003;68467;50.960;0.314;2024-01-07T11:32:56;7;6;
64627;PMS5003;68467;50.960;0.314;2024-01-07T11:35:50;5;5;
64627;PMS5003;68467;50.960;0.314;2024-01-07T11:38:21;6;6;
64627;PMS5003;68467;50.960;0.314;2024-01-07T11:40:49;3;3;
64627;PMS5003;68467;50.960;0.314;2024-01-07T11:43:17;2;2;
64627;PMS5003;68467;50.960;0.314;2024-01-07T11:45:44;4;3;
64627;PMS5003;68467;50.960;0.314;2024-01-07T11:48:11;3;3;
64627;PMS5003;68467;50.960;0.314;2024-01-07T11:50:38;2;2;
64627;PMS5003;68467;50.960;0.314;2024-01-07T13:54:17;16;16;
64627;PMS5003;68467;50.960;0.314;2024-01-07T13:56:44;33;33;
64627;PMS5003;68467;50.960;0.314;2024-01-07T13:59:12;10;10;
64627;PMS5003;68467;50.960;0.314;2024-01-07T14:01:39;8;8;
64627;PMS5003;68467;50.960;0.314;2024-01-07T14:04:07;19;17;
64627;PMS5003;68467;50.960;0.314;2024-01-07T14:06:34;7;7;
64627;PMS5003;68467;50.960;0.314;2024-01-07T14:09:01;10;9;
64627;PMS5003;68467;50.960;0.314;2024-01-07T14:11:28;8;8;
64627;PMS5003;68467;50.960;0.314;2024-01-07T14:13:56;8;8;
64627;PMS5003;68467;50.960;0.314;2024-01-07T14:16:23;7;6;
64627;PMS5003;68467;50.960;0.314;2024-01-07T14:18:50;8;6;
64627;PMS5003;68467;50.960;0.314;2024-01-07T14:21:17;7;7;
64627;PMS5003;68467;50.960;0.314;2024-01-07T14:23:44;9;8;
64627;PMS5003;68467;50.960;0.314;2024-01-07T14:26:12;6;6;
64627;PMS5003;68467;50.960;0.314;2024-01-07T14:28:39;13;13;
64627;PMS5003;68467;50.960;0.314;2024-01-07T14:31:07;10;10;
64627;PMS5003;68467;50.960;0.314;2024-01-07T14:33:33;6;6;
64627;PMS5003;68467;50.960;0.314;2024-01-07T14:36:02;22;18;
64627;PMS5003;68467;50.960;0.314;2024-01-07T14:38:29;4;4;
64627;PMS5003;68467;50.960;0.314;2024-01-07T14:40:56;9;9;
64627;PMS5003;68467;50.960;0.314;2024-01-07T14:43:24;15;15;
64627;PMS5003;68467;50.960;0.314;2024-01-07T14:45:52;7;7;
64627;PMS5003;68467;50.960;0.314;2024-01-07T14:48:20;8;8;
64627;PMS5003;68467;50.960;0.314;2024-01-07T14:50:47;9;9;
64627;PMS5003;68467;50.960;0.314;2024-01-07T14:53:14;8;8;
64627;PMS5003;68467;50.960;0.314;2024-01-07T14:55:42;8;8;
64627;PMS5003;68467;50.960;0.314;2024-01-07T14:58:09;11;11;
64627;PMS5003;68467;50.960;0.314;2024-01-07T15:00:36;17;15;
64627;PMS5003;68467;50.960;0.314;2024-01-07T15:03:04;17;15;
64627;PMS5003;68467;50.960;0.314;2024-01-07T15:05:32;18;18;
64627;PMS5003;68467;50.960;0.314;2024-01-07T15:07:59;16;14;
64627;PMS5003;68467;50.960;0.314;2024-01-07T15:10:27;20;20;
64627;PMS5003;68467;50.960;0.314;2024-01-07T15:12:54;29;27;
64627;PMS5003;68467;50.960;0.314;2024-01-07T15:15:21;38;35;
64627;PMS5003;68467;50.960;0.314;2024-01-07T15:17:48;16;14;
64627;PMS5003;68467;50.960;0.314;2024-01-07T15:20:15;12;11;
64627;PMS5003;68467;50.960;0.314;2024-01-07T15:22:43;8;7;
64627;PMS5003;68467;50.960;0.314;2024-01-07T15:25:10;9;9;
64627;PMS5003;68467;50.960;0.314;2024-01-07T15:27:37;7;7;
64627;PMS5003;68467;50.960;0.314;2024-01-07T15:30:05;10;9;
64627;PMS5003;68467;50.960;0.314;2024-01-07T15:32:33;9;9;
64627;PMS5003;68467;50.960;0.314;2024-01-07T15:35:00;22;20;
64627;PMS5003;68467;50.960;0.314;2024-01-07T15:37:28;20;18;
64627;PMS5003;68467;50.960;0.314;2024-01-07T15:39:55;9;8;
64627;PMS5003;68467;50.960;0.314;2024-01-07T15:42:22;11;9;
64627;PMS5003;68467;50.960;0.314;2024-01-07T15:44:49;17;15;
64627;PMS5003;68467;50.960;0.314;2024-01-07T15:47:16;9;9;
64627;PMS5003;68467;50.960;0.314;2024-01-07T15:49:44;20;18;
64627;PMS5003;68467;50.960;0.314;2024-01-07T15:52:12;10;10;
64627;PMS5003;68467;50.960;0.314;2024-01-07T15:54:39;6;6;
64627;PMS5003;68467;50.960;0.314;2024-01-07T15:57:06;8;8;
64627;PMS5003;68467;50.960;0.314;2024-01-07T15:59:33;12;11;
64627;PMS5003;68467;50.960;0.314;2024-01-07T16:02:02;7;6;
64627;PMS5003;68467;50.960;0.314;2024-01-07T16:04:29;10;9;
64627;PMS5003;68467;50.960;0.314;2024-01-07T16:06:56;6;6;
64627;PMS5003;68467;50.960;0.314;2024-01-07T16:09:23;8;7;
64627;PMS5003;68467;50.960;0.314;2024-01-07T16:11:50;6;6;
64627;PMS5003;68467;50.960;0.314;2024-01-07T16:14:18;15;12;
64627;PMS5003;68467;50.960;0.314;2024-01-07T16:16:45;7;7;
64627;PMS5003;68467;50.960;0.314;2024-01-07T16:19:12;9;9;
64627;PMS5003;68467;50.960;0.314;2024-01-07T16:21:39;9;9;
64627;PMS5003;68467;50.960;0.314;2024-01-07T16:24:06;6;6;
64627;PMS5003;68467;50.960;0.314;2024-01-07T16:26:33;10;10;
64627;PMS5003;68467;50.960;0.314;2024-01-07T16:29:01;6;6;
64627;PMS5003;68467;50.960;0.314;2024-01-07T16:31:29;15;15;
64627;PMS5003;68467;50.960;0.314;2024-01-07T16:33:56;9;8;
64627;PMS5003;68467;50.960;0.314;2024-01-07T16:36:23;9;8;
64627;PMS5003;68467;50.960;0.314;2024-01-07T16:38:51;8;7;
64627;PMS5003;68467;50.960;0.314;2024-01-07T16:41:19;6;6;
64627;PMS5003;68467;50.960;0.314;2024-01-07T16:43:46;6;6;
64627;PMS5003;68467;50.960;0.314;2024-01-07T16:46:14;7;7;
64627;PMS5003;68467;50.960;0.314;2024-01-07T16:48:41;9;9;
64627;PMS5003;68467;50.960;0.314;2024-01-07T16:51:08;12;11;
64627;PMS5003;68467;50.960;0.314;2024-01-07T16:53:35;11;11;
64627;PMS5003;68467;50.960;0.314;2024-01-07T16:56:02;8;8;
64627;PMS5003;68467;50.960;0.314;2024-01-07T16:58:30;10;9;
64627;PMS5003;68467;50.960;0.314;2024-01-07T17:00:57;8;8;
64627;PMS5003;68467;50.960;0.314;2024-01-07T17:03:24;9;9;
64627;PMS5003;68467;50.960;0.314;2024-01-07T17:05:52;15;14;
64627;PMS5003;68467;50.960;0.314;2024-01-07T17:08:19;12;11;
64627;PMS5003;68467;50.960;0.314;2024-01-07T17:10:47;14;14;
64627;PMS5003;68467;50.960;0.314;2024-01-07T17:13:14;15;14;
64627;PMS5003;68467;50.960;0.314;2024-01-07T17:15:42;31;29;
64627;PMS5003;68467;50.960;0.314;2024-01-07T17:18:09;20;18;
64627;PMS5003;68467;50.960;0.314;2024-01-07T17:20:36;14;13;
64627;PMS5003;68467;50.960;0.314;2024-01-07T17:23:03;8;8;
64627;PMS5003;68467;50.960;0.314;2024-01-07T17:25:31;10;10;
64627;PMS5003;68467;50.960;0.314;2024-01-07T17:27:58;14;14;
64627;PMS5003;68467;50.960;0.314;2024-01-07T17:30:26;21;20;
64627;PMS5003;68467;50.960;0.314;2024-01-07T17:32:54;30;29;
64627;PMS5003;68467;50.960;0.314;2024-01-07T17:35:21;24;23;
64627;PMS5003;68467;50.960;0.314;2024-01-07T17:37:49;9;9;
64627;PMS5003;68467;50.960;0.314;2024-01-07T17:40:16;11;10;
64627;PMS5003;68467;50.960;0.314;2024-01-07T17:42:44;15;14;
64627;PMS5003;68467;50.960;0.314;2024-01-07T17:45:11;7;6;
64627;PMS5003;68467;50.960;0.314;2024-01-07T17:47:38;10;9;
64627;PMS5003;68467;50.960;0.314;2024-01-07T17:50:07;10;10;
64627;PMS5003;68467;50.960;0.314;2024-01-07T17:52:34;8;8;
64627;PMS5003;68467;50.960;0.314;2024-01-07T17:55:02;26;20;
64627;PMS5003;68467;50.960;0.314;2024-01-07T17:57:30;14;11;
64627;PMS5003;68467;50.960;0.314;2024-01-07T17:59:57;13;11;
64627;PMS5003;68467;50.960;0.314;2024-01-07T18:02:24;6;6;
64627;PMS5003;68467;50.960;0.314;2024-01-07T18:04:51;16;14;
64627;PMS5003;68467;50.960;0.314;2024-01-07T18:07:18;11;10;
64627;PMS5003;68467;50.960;0.314;2024-01-07T18:09:45;9;9;
64627;PMS5003;68467;50.960;0.314;2024-01-07T18:12:13;18;17;
64627;PMS5003;68467;50.960;0.314;2024-01-07T18:14:40;6;6;
64627;PMS5003;68467;50.960;0.314;2024-01-07T18:17:07;7;7;
64627;PMS5003;68467;50.960;0.314;2024-01-07T18:19:34;8;6;
64627;PMS5003;68467;50.960;0.314;2024-01-07T18:22:02;7;6;
64627;PMS5003;68467;50.960;0.314;2024-01-07T18:24:30;14;13;
64627;PMS5003;68467;50.960;0.314;2024-01-07T18:26:58;9;8;
64627;PMS5003;68467;50.960;0.314;2024-01-07T18:29:25;33;32;
64627;PMS5003;68467;50.960;0.314;2024-01-07T18:31:52;9;9;
64627;PMS5003;68467;50.960;0.314;2024-01-07T18:34:19;26;23;
64627;PMS5003;68467;50.960;0.314;2024-01-07T18:36:47;7;7;
64627;PMS5003;68467;50.960;0.314;2024-01-07T18:39:14;8;7;
64627;PMS5003;68467;50.960;0.314;2024-01-07T18:41:41;6;6;
64627;PMS5003;68467;50.960;0.314;2024-01-07T18:44:08;16;13;
64627;PMS5003;68467;50.960;0.314;2024-01-07T18:46:35;7;7;